createdAt,value
2018-11-14T00:00:41.716Z,1042.98
2018-11-14T00:01:41.703Z,1043.01
2018-11-14T00:02:41.699Z,1043.03
2018-11-14T00:03:41.680Z,1043.05
2018-11-14T00:04:41.671Z,1043.07
2018-11-14T00:05:41.655Z,1043.08
2018-11-14T00:06:41.647Z,1043.12
2018-11-14T00:07:41.631Z,1043.14
2018-11-14T00:08:41.623Z,1043.12
2018-11-14T00:09:41.644Z,1043.21
2018-11-14T00:10:41.599Z,1043.21
2018-11-14T00:11:41.583Z,1043.2
2018-11-14T00:12:41.572Z,1043.22
2018-11-14T00:13:41.558Z,1043.24
2018-11-14T00:14:41.550Z,1043.26
2018-11-14T00:15:41.537Z,1043.3
2018-11-14T00:16:41.522Z,1043.3
2018-11-14T00:17:41.512Z,1043.3
2018-11-14T00:18:41.497Z,1043.35
2018-11-14T00:19:41.490Z,1043.32
2018-11-14T00:20:41.474Z,1043.34
2018-11-14T00:21:41.466Z,1043.34
2018-11-14T00:22:41.452Z,1043.37
2018-11-14T00:23:41.441Z,1043.34
2018-11-14T00:24:41.475Z,1043.35
2018-11-14T00:25:41.417Z,1043.32
2018-11-14T00:26:41.405Z,1043.32
2018-11-14T00:27:41.421Z,1043.3
2018-11-14T00:28:41.379Z,1043.3
2018-11-14T00:29:41.688Z,1043.29
2018-11-14T00:30:41.357Z,1043.26
2018-11-14T00:31:41.345Z,1043.23
2018-11-14T00:32:41.330Z,1043.21
2018-11-14T00:33:41.318Z,1043.17
2018-11-14T00:34:41.309Z,1043.21
2018-11-14T00:35:41.343Z,1043.17
2018-11-14T00:36:41.281Z,1043.2
2018-11-14T00:37:41.273Z,1043.19
2018-11-14T00:38:41.258Z,1043.22
2018-11-14T00:39:41.254Z,1043.28
2018-11-14T00:40:41.233Z,1043.32
2018-11-14T00:41:41.226Z,1043.39
2018-11-14T00:42:41.208Z,1043.36
2018-11-14T00:43:41.200Z,1043.39
2018-11-14T00:44:41.189Z,1043.4
2018-11-14T00:45:41.178Z,1043.39
2018-11-14T00:46:41.161Z,1043.38
2018-11-14T00:47:41.151Z,1043.39
2018-11-14T00:48:41.141Z,1043.35
2018-11-14T00:49:41.129Z,1043.35
2018-11-14T00:50:41.116Z,1043.29
2018-11-14T00:51:41.105Z,1043.3
2018-11-14T00:52:41.094Z,1043.29
2018-11-14T00:53:41.080Z,1043.31
2018-11-14T00:54:41.079Z,1043.34
2018-11-14T00:55:41.057Z,1043.31
2018-11-14T00:56:41.041Z,1043.37
2018-11-14T00:57:41.032Z,1043.38
2018-11-14T00:58:41.017Z,1043.39
2018-11-14T00:59:41.009Z,1043.43
2018-11-14T01:00:41.001Z,1043.41
2018-11-14T01:01:41.050Z,1043.46
2018-11-14T01:02:40.968Z,1043.46
2018-11-14T01:03:40.957Z,1043.48
2018-11-14T01:04:40.949Z,1043.5
2018-11-14T01:05:40.936Z,1043.51
2018-11-14T01:06:40.925Z,1043.53
2018-11-14T01:07:41.159Z,1043.51
2018-11-14T01:08:40.901Z,1043.49
2018-11-14T01:09:40.884Z,1043.5
2018-11-14T01:10:40.880Z,1043.51
2018-11-14T01:11:40.860Z,1043.49
2018-11-14T01:12:40.852Z,1043.52
2018-11-14T01:13:40.836Z,1043.51
2018-11-14T01:14:40.829Z,1043.51
2018-11-14T01:15:40.811Z,1043.59
2018-11-14T01:16:40.800Z,1043.57
2018-11-14T01:17:40.786Z,1043.57
2018-11-14T01:18:40.779Z,1043.57
2018-11-14T01:19:40.762Z,1043.56
2018-11-14T01:20:40.755Z,1043.6
2018-11-14T01:21:40.816Z,1043.57
2018-11-14T01:22:40.732Z,1043.63
2018-11-14T01:23:40.718Z,1043.62
2018-11-14T01:24:40.707Z,1043.62
2018-11-14T01:25:40.693Z,1043.64
2018-11-14T01:26:40.682Z,1043.66
2018-11-14T01:27:40.665Z,1043.61
2018-11-14T01:28:40.658Z,1043.63
2018-11-14T01:29:40.642Z,1043.64
2018-11-14T01:30:40.637Z,1043.64
2018-11-14T01:31:40.617Z,1043.67
2018-11-14T01:32:40.606Z,1043.65
2018-11-14T01:33:40.597Z,1043.67
2018-11-14T01:34:40.585Z,1043.68
2018-11-14T01:35:40.601Z,1043.67
2018-11-14T01:36:40.557Z,1043.72
2018-11-14T01:37:40.543Z,1043.7
2018-11-14T01:38:40.531Z,1043.72
2018-11-14T01:39:40.522Z,1043.74
2018-11-14T01:40:40.508Z,1043.75
2018-11-14T01:41:40.498Z,1043.73
2018-11-14T01:42:40.483Z,1043.79
2018-11-14T01:43:40.475Z,1043.72
2018-11-14T01:44:40.459Z,1043.76
2018-11-14T01:45:40.445Z,1043.76
2018-11-14T01:46:40.440Z,1043.79
2018-11-14T01:47:40.421Z,1043.8
2018-11-14T01:48:40.408Z,1043.84
2018-11-14T01:49:40.396Z,1043.86
2018-11-14T01:50:40.390Z,1043.83
2018-11-14T01:51:40.380Z,1043.88
2018-11-14T01:52:40.360Z,1043.83
2018-11-14T01:53:40.346Z,1043.89
2018-11-14T01:54:40.334Z,1043.89
2018-11-14T01:55:40.328Z,1043.87
2018-11-14T01:56:40.309Z,1043.9
2018-11-14T01:57:40.297Z,1043.91
2018-11-14T01:58:40.294Z,1043.89
2018-11-14T01:59:40.272Z,1043.88
2018-11-14T02:00:40.263Z,1043.85
2018-11-14T02:01:40.248Z,1043.86
2018-11-14T02:02:40.240Z,1043.85
2018-11-14T02:03:40.223Z,1043.85
2018-11-14T02:04:40.210Z,1043.85
2018-11-14T02:05:40.198Z,1043.81
2018-11-14T02:06:40.190Z,1043.81
2018-11-14T02:07:40.178Z,1043.8
2018-11-14T02:08:40.164Z,1043.81
2018-11-14T02:09:40.150Z,1043.83
2018-11-14T02:10:40.141Z,1043.85
2018-11-14T02:11:40.125Z,1043.81
2018-11-14T02:12:40.116Z,1043.84
2018-11-14T02:13:40.100Z,1043.87
2018-11-14T02:14:40.096Z,1043.84
2018-11-14T02:15:40.074Z,1043.87
2018-11-14T02:16:40.067Z,1043.85
2018-11-14T02:17:40.049Z,1043.88
2018-11-14T02:18:40.041Z,1043.88
2018-11-14T02:19:40.027Z,1043.93
2018-11-14T02:20:40.013Z,1043.94
2018-11-14T02:21:40.001Z,1043.9
2018-11-14T02:22:39.997Z,1043.93
2018-11-14T02:23:39.979Z,1043.97
2018-11-14T02:24:39.963Z,1043.98
2018-11-14T02:25:40.251Z,1043.97
2018-11-14T02:26:39.938Z,1044.03
2018-11-14T02:27:39.930Z,1044.05
2018-11-14T02:28:39.912Z,1044.01
2018-11-14T02:29:39.904Z,1044
2018-11-14T02:30:39.888Z,1044
2018-11-14T02:31:39.879Z,1043.97
2018-11-14T02:32:39.864Z,1043.97
2018-11-14T02:33:39.861Z,1044.02
2018-11-14T02:34:39.838Z,1043.95
2018-11-14T02:35:39.833Z,1044.06
2018-11-14T02:36:39.817Z,1044.07
2018-11-14T02:37:39.800Z,1044.09
2018-11-14T02:38:39.793Z,1044.1
2018-11-14T02:39:39.779Z,1044.08
2018-11-14T02:40:39.762Z,1044.1
2018-11-14T02:41:39.750Z,1044.11
2018-11-14T02:42:39.738Z,1044.09
2018-11-14T02:43:39.729Z,1044.09
2018-11-14T02:44:39.713Z,1044.1
2018-11-14T02:45:39.705Z,1044.11
2018-11-14T02:46:39.688Z,1044.09
2018-11-14T02:47:39.679Z,1044.11
2018-11-14T02:48:39.662Z,1044.11
2018-11-14T02:49:39.657Z,1044.15
2018-11-14T02:50:39.638Z,1044.11
2018-11-14T02:51:39.630Z,1044.11
2018-11-14T02:52:39.620Z,1044.08
2018-11-14T02:53:39.605Z,1044.13
2018-11-14T02:54:39.587Z,1044.11
2018-11-14T02:55:39.577Z,1044.04
2018-11-14T02:56:39.567Z,1044.11
2018-11-14T02:57:39.554Z,1044.08
2018-11-14T02:58:39.542Z,1044.09
2018-11-14T02:59:39.525Z,1044.15
2018-11-14T03:00:39.517Z,1044.14
2018-11-14T03:01:39.504Z,1044.15
2018-11-14T03:02:39.487Z,1044.14
2018-11-14T03:03:39.478Z,1044.14
2018-11-14T03:04:39.474Z,1044.13
2018-11-14T03:05:39.452Z,1044.16
2018-11-14T03:06:39.437Z,1044.19
2018-11-14T03:07:39.436Z,1044.23
2018-11-14T03:08:39.416Z,1044.26
2018-11-14T03:09:39.403Z,1044.23
2018-11-14T03:10:39.385Z,1044.27
2018-11-14T03:11:39.374Z,1044.26
2018-11-14T03:12:39.365Z,1044.28
2018-11-14T03:13:39.352Z,1044.29
2018-11-14T03:14:39.343Z,1044.24
2018-11-14T03:15:39.324Z,1044.27
2018-11-14T03:16:39.314Z,1044.27
2018-11-14T03:17:39.298Z,1044.25
2018-11-14T03:18:39.289Z,1044.29
2018-11-14T03:19:39.272Z,1044.26
2018-11-14T03:20:39.263Z,1044.31
2018-11-14T03:21:39.245Z,1044.32
2018-11-14T03:22:39.246Z,1044.3
2018-11-14T03:23:39.220Z,1044.35
2018-11-14T03:24:39.209Z,1044.32
2018-11-14T03:25:39.196Z,1044.36
2018-11-14T03:26:39.188Z,1044.31
2018-11-14T03:27:39.170Z,1044.36
2018-11-14T03:28:39.161Z,1044.37
2018-11-14T03:29:39.150Z,1044.39
2018-11-14T03:30:39.138Z,1044.37
2018-11-14T03:31:39.123Z,1044.42
2018-11-14T03:32:39.125Z,1044.43
2018-11-14T03:33:39.097Z,1044.41
2018-11-14T03:34:39.085Z,1044.38
2018-11-14T03:35:39.069Z,1044.42
2018-11-14T03:36:39.062Z,1044.43
2018-11-14T03:37:39.044Z,1044.32
2018-11-14T03:38:39.034Z,1044.4
2018-11-14T03:39:39.019Z,1044.43
2018-11-14T03:40:39.016Z,1044.48
2018-11-14T03:41:38.997Z,1044.45
2018-11-14T03:42:38.982Z,1044.5
2018-11-14T03:43:38.968Z,1044.51
2018-11-14T03:44:38.960Z,1044.52
2018-11-14T03:45:38.946Z,1044.54
2018-11-14T03:46:38.937Z,1044.55
2018-11-14T03:47:38.920Z,1044.59
2018-11-14T03:48:38.908Z,1044.57
2018-11-14T03:49:38.891Z,1044.57
2018-11-14T03:50:38.883Z,1044.58
2018-11-14T03:51:38.866Z,1044.53
2018-11-14T03:52:38.857Z,1044.56
2018-11-14T03:53:38.845Z,1044.59
2018-11-14T03:54:38.828Z,1044.59
2018-11-14T03:55:38.819Z,1044.57
2018-11-14T03:56:38.805Z,1044.59
2018-11-14T03:57:38.794Z,1044.6
2018-11-14T03:58:38.778Z,1044.57
2018-11-14T03:59:38.765Z,1044.57
2018-11-14T04:00:38.755Z,1044.58
2018-11-14T04:01:38.743Z,1044.52
2018-11-14T04:02:38.731Z,1044.53
2018-11-14T04:03:38.712Z,1044.54
2018-11-14T04:04:38.704Z,1044.51
2018-11-14T04:05:38.742Z,1044.55
2018-11-14T04:06:38.680Z,1044.54
2018-11-14T04:07:38.661Z,1044.53
2018-11-14T04:08:38.652Z,1044.5
2018-11-14T04:09:38.637Z,1044.48
2018-11-14T04:10:38.628Z,1044.46
2018-11-14T04:11:38.612Z,1044.51
2018-11-14T04:12:38.598Z,1044.49
2018-11-14T04:13:38.586Z,1044.44
2018-11-14T04:14:38.828Z,1044.38
2018-11-14T04:15:38.564Z,1044.35
2018-11-14T04:16:38.548Z,1044.37
2018-11-14T04:17:38.537Z,1044.34
2018-11-14T04:18:38.525Z,1044.34
2018-11-14T04:19:38.509Z,1044.32
2018-11-14T04:20:38.557Z,1044.32
2018-11-14T04:21:38.483Z,1044.3
2018-11-14T04:22:38.479Z,1044.33
2018-11-14T04:23:38.457Z,1044.32
2018-11-14T04:24:38.453Z,1044.36
2018-11-14T04:25:38.432Z,1044.39
2018-11-14T04:26:38.425Z,1044.41
2018-11-14T04:27:38.406Z,1044.4
2018-11-14T04:28:38.394Z,1044.42
2018-11-14T04:29:38.381Z,1044.45
2018-11-14T04:30:38.371Z,1044.45
2018-11-14T04:31:38.360Z,1044.46
2018-11-14T04:32:38.343Z,1044.49
2018-11-14T04:33:38.330Z,1044.47
2018-11-14T04:34:38.317Z,1044.47
2018-11-14T04:35:38.308Z,1044.48
2018-11-14T04:36:38.290Z,1044.45
2018-11-14T04:37:38.283Z,1044.46
2018-11-14T04:38:38.265Z,1044.48
2018-11-14T04:39:38.258Z,1044.5
2018-11-14T04:40:38.239Z,1044.54
2018-11-14T04:41:38.231Z,1044.5
2018-11-14T04:42:38.215Z,1044.57
2018-11-14T04:43:38.206Z,1044.56
2018-11-14T04:44:38.188Z,1044.57
2018-11-14T04:45:38.175Z,1044.55
2018-11-14T04:46:38.167Z,1044.56
2018-11-14T04:47:38.157Z,1044.57
2018-11-14T04:48:38.141Z,1044.59
2018-11-14T04:49:38.123Z,1044.54
2018-11-14T04:50:38.116Z,1044.58
2018-11-14T04:51:38.101Z,1044.53
2018-11-14T04:52:38.085Z,1044.59
2018-11-14T04:53:38.076Z,1044.61
2018-11-14T04:54:38.059Z,1044.58
2018-11-14T04:55:38.050Z,1044.53
2018-11-14T04:56:38.032Z,1044.56
2018-11-14T04:57:38.024Z,1044.54
2018-11-14T04:58:38.006Z,1044.54
2018-11-14T04:59:37.997Z,1044.54
2018-11-14T05:00:37.988Z,1044.52
2018-11-14T05:01:37.971Z,1044.53
2018-11-14T05:02:37.992Z,1044.52
2018-11-14T05:03:37.941Z,1044.49
2018-11-14T05:04:37.932Z,1044.49
2018-11-14T05:05:37.920Z,1044.5
2018-11-14T05:06:37.905Z,1044.52
2018-11-14T05:07:37.888Z,1044.48
2018-11-14T05:08:37.880Z,1044.5
2018-11-14T05:09:37.866Z,1044.55
2018-11-14T05:10:37.848Z,1044.58
2018-11-14T05:11:37.840Z,1044.59
2018-11-14T05:12:37.823Z,1044.6
2018-11-14T05:13:37.817Z,1044.65
2018-11-14T05:14:37.803Z,1044.64
2018-11-14T05:15:37.788Z,1044.66
2018-11-14T05:16:37.776Z,1044.67
2018-11-14T05:17:37.762Z,1044.73
2018-11-14T05:18:37.745Z,1044.71
2018-11-14T05:19:37.732Z,1044.75
2018-11-14T05:20:37.723Z,1044.78
2018-11-14T05:21:37.710Z,1044.79
2018-11-14T05:22:37.692Z,1044.81
2018-11-14T05:23:37.685Z,1044.78
2018-11-14T05:24:37.696Z,1044.82
2018-11-14T05:25:37.657Z,1044.81
2018-11-14T05:26:37.640Z,1044.82
2018-11-14T05:27:37.629Z,1044.83
2018-11-14T05:28:37.613Z,1044.87
2018-11-14T05:29:37.612Z,1044.91
2018-11-14T05:30:37.587Z,1044.89
2018-11-14T05:31:37.580Z,1044.92
2018-11-14T05:32:37.565Z,1044.96
2018-11-14T05:33:37.552Z,1044.95
2018-11-14T05:34:37.538Z,1044.98
2018-11-14T05:35:37.526Z,1045
2018-11-14T05:36:37.509Z,1045.03
2018-11-14T05:37:37.495Z,1045
2018-11-14T05:38:37.481Z,1045.02
2018-11-14T05:39:37.542Z,1044.99
2018-11-14T05:40:37.455Z,1044.99
2018-11-14T05:41:37.447Z,1044.98
2018-11-14T05:42:37.429Z,1045.02
2018-11-14T05:43:37.419Z,1045.02
2018-11-14T05:44:37.402Z,1045.08
2018-11-14T05:45:37.455Z,1045.06
2018-11-14T05:46:37.376Z,1045.06
2018-11-14T05:47:37.367Z,1045.1
2018-11-14T05:48:37.353Z,1045.12
2018-11-14T05:49:37.345Z,1045.08
2018-11-14T05:50:37.323Z,1045.1
2018-11-14T05:51:37.309Z,1045.11
2018-11-14T05:52:37.301Z,1045.09
2018-11-14T05:53:37.288Z,1045.09
2018-11-14T05:54:37.274Z,1045.16
2018-11-14T05:55:37.257Z,1045.17
2018-11-14T05:56:37.249Z,1045.19
2018-11-14T05:57:37.230Z,1045.15
2018-11-14T05:58:37.221Z,1045.16
2018-11-14T05:59:37.204Z,1045.15
2018-11-14T06:00:37.195Z,1045.12
2018-11-14T06:01:37.181Z,1045.12
2018-11-14T06:02:37.165Z,1045.13
2018-11-14T06:03:37.155Z,1045.11
2018-11-14T06:04:37.142Z,1045.1
2018-11-14T06:05:37.128Z,1045.1
2018-11-14T06:06:37.115Z,1045.14
2018-11-14T06:07:37.206Z,1045.16
2018-11-14T06:08:37.089Z,1045.2
2018-11-14T06:09:37.077Z,1045.17
2018-11-14T06:10:37.063Z,1045.22
2018-11-14T06:11:37.045Z,1045.2
2018-11-14T06:12:37.036Z,1045.18
2018-11-14T06:13:37.018Z,1045.18
2018-11-14T06:14:37.010Z,1045.16
2018-11-14T06:15:36.991Z,1045.13
2018-11-14T06:16:36.983Z,1045.13
2018-11-14T06:17:36.968Z,1045.18
2018-11-14T06:18:36.956Z,1045.18
2018-11-14T06:19:36.939Z,1045.17
2018-11-14T06:20:36.925Z,1045.14
2018-11-14T06:21:36.912Z,1045.16
2018-11-14T06:22:36.903Z,1045.18
2018-11-14T06:23:36.962Z,1045.16
2018-11-14T06:24:36.872Z,1045.16
2018-11-14T06:25:36.863Z,1045.13
2018-11-14T06:26:36.849Z,1045.15
2018-11-14T06:27:36.832Z,1045.12
2018-11-14T06:28:36.824Z,1045.09
2018-11-14T06:29:36.813Z,1045.09
2018-11-14T06:30:36.797Z,1045.09
2018-11-14T06:31:36.779Z,1045.07
2018-11-14T06:32:36.770Z,1045.09
2018-11-14T06:33:36.753Z,1045.02
2018-11-14T06:34:36.744Z,1045.02
2018-11-14T06:35:36.726Z,1045.04
2018-11-14T06:36:36.713Z,1045.02
2018-11-14T06:37:36.699Z,1045.03
2018-11-14T06:38:36.690Z,1045.03
2018-11-14T06:39:36.677Z,1045.08
2018-11-14T06:40:36.659Z,1045.05
2018-11-14T06:41:36.652Z,1045.07
2018-11-14T06:42:36.633Z,1045.04
2018-11-14T06:43:36.625Z,1045.06
2018-11-14T06:44:36.606Z,1045.06
2018-11-14T06:45:36.598Z,1045
2018-11-14T06:46:36.581Z,1045.03
2018-11-14T06:47:36.572Z,1044.99
2018-11-14T06:48:36.553Z,1045.01
2018-11-14T06:49:36.545Z,1045.01
2018-11-14T06:50:36.527Z,1045
2018-11-14T06:51:36.520Z,1045.01
2018-11-14T06:52:36.502Z,1045.02
2018-11-14T06:53:36.491Z,1044.98
2018-11-14T06:54:36.482Z,1044.99
2018-11-14T06:55:36.475Z,1044.96
2018-11-14T06:56:36.451Z,1044.95
2018-11-14T06:57:36.439Z,1044.91
2018-11-14T06:58:36.438Z,1044.83
2018-11-14T06:59:36.465Z,1044.8
2018-11-14T07:00:36.700Z,1044.74
2018-11-14T07:01:36.391Z,1044.65
2018-11-14T07:02:38.338Z,1044.62
2018-11-14T07:03:36.370Z,1044.56
2018-11-14T07:04:36.349Z,1044.53
2018-11-14T07:05:36.463Z,1044.54
2018-11-14T07:06:36.325Z,1044.51
2018-11-14T07:07:36.314Z,1044.58
2018-11-14T07:08:36.302Z,1044.56
2018-11-14T07:09:36.290Z,1044.56
2018-11-14T07:10:36.272Z,1044.57
2018-11-14T07:11:36.259Z,1044.63
2018-11-14T07:12:36.251Z,1044.63
2018-11-14T07:13:36.239Z,1044.62
2018-11-14T07:14:36.227Z,1044.62
2018-11-14T07:15:36.211Z,1044.6
2018-11-14T07:16:36.207Z,1044.59
2018-11-14T07:17:36.191Z,1044.55
2018-11-14T07:18:36.173Z,1044.52
2018-11-14T07:19:36.165Z,1044.5
2018-11-14T07:20:36.149Z,1044.42
2018-11-14T07:21:36.140Z,1044.43
2018-11-14T07:22:36.124Z,1044.45
2018-11-14T07:23:36.143Z,1044.43
2018-11-14T07:24:36.168Z,1044.41
2018-11-14T07:25:36.093Z,1044.39
2018-11-14T07:26:36.077Z,1044.37
2018-11-14T07:27:36.063Z,1044.36
2018-11-14T07:28:36.057Z,1044.32
2018-11-14T07:29:36.043Z,1044.24
2018-11-14T07:30:36.031Z,1044.25
2018-11-14T07:31:36.015Z,1044.24
2018-11-14T07:32:36.007Z,1044.2
2018-11-14T07:33:35.990Z,1044.15
2018-11-14T07:34:35.983Z,1044.15
2018-11-14T07:35:35.967Z,1044.16
2018-11-14T07:36:35.959Z,1044.16
2018-11-14T07:37:35.949Z,1044.18
2018-11-14T07:38:35.935Z,1044.15
2018-11-14T07:39:35.918Z,1044.19
2018-11-14T07:40:35.907Z,1044.13
2018-11-14T07:41:35.896Z,1044.16
2018-11-14T07:42:35.887Z,1044.14
2018-11-14T07:43:35.944Z,1044.16
2018-11-14T07:44:35.863Z,1044.15
2018-11-14T07:45:35.852Z,1044.2
2018-11-14T07:46:35.840Z,1044.2
2018-11-14T07:47:35.823Z,1044.16
2018-11-14T07:48:35.817Z,1044.15
2018-11-14T07:49:35.800Z,1044.14
2018-11-14T07:50:35.793Z,1044.15
2018-11-14T07:51:35.778Z,1044.11
2018-11-14T07:52:36.021Z,1044.09
2018-11-14T07:53:35.759Z,1044.07
2018-11-14T07:54:35.751Z,1044.1
2018-11-14T07:55:35.731Z,1044.11
2018-11-14T07:56:35.720Z,1044.03
2018-11-14T07:57:35.709Z,1044.05
2018-11-14T07:58:35.701Z,1044.09
2018-11-14T07:59:35.690Z,1044.08
2018-11-14T08:00:35.674Z,1044.1
2018-11-14T08:01:35.662Z,1044.11
2018-11-14T08:02:35.650Z,1044.09
2018-11-14T08:03:35.644Z,1044.07
2018-11-14T08:04:35.628Z,1044.09
2018-11-14T08:05:35.621Z,1044.07
2018-11-14T08:06:35.605Z,1044.08
2018-11-14T08:07:35.656Z,1044.06
2018-11-14T08:08:35.582Z,1044.08
2018-11-14T08:09:35.570Z,1044.08
2018-11-14T08:10:35.565Z,1044.12
2018-11-14T08:11:35.549Z,1044.12
2018-11-14T08:12:35.537Z,1044.09
2018-11-14T08:13:35.526Z,1044.08
2018-11-14T08:14:35.525Z,1044.14
2018-11-14T08:15:35.508Z,1044.13
2018-11-14T08:16:35.491Z,1044.17
2018-11-14T08:17:35.479Z,1044.18
2018-11-14T08:18:35.509Z,1044.2
2018-11-14T08:19:35.462Z,1044.15
2018-11-14T08:20:35.450Z,1044.17
2018-11-14T08:21:35.440Z,1044.15
2018-11-14T08:22:35.424Z,1044.15
2018-11-14T08:23:35.417Z,1044.12
2018-11-14T08:24:35.401Z,1044.13
2018-11-14T08:25:35.395Z,1044.11
2018-11-14T08:26:35.380Z,1044.11
2018-11-14T08:27:35.377Z,1044.06
2018-11-14T08:28:35.361Z,1044.09
2018-11-14T08:29:35.351Z,1044.09
2018-11-14T08:30:35.344Z,1044.07
2018-11-14T08:31:35.325Z,1044.05
2018-11-14T08:32:35.318Z,1044.01
2018-11-14T08:33:35.309Z,1043.99
2018-11-14T08:34:35.289Z,1043.94
2018-11-14T08:35:35.284Z,1043.97
2018-11-14T08:36:35.269Z,1043.96
2018-11-14T08:37:35.261Z,1043.9
2018-11-14T08:38:35.250Z,1043.9
2018-11-14T08:39:35.240Z,1043.95
2018-11-14T08:40:35.225Z,1043.96
2018-11-14T08:41:35.218Z,1043.97
2018-11-14T08:42:35.201Z,1044.01
2018-11-14T08:43:35.196Z,1044.02
2018-11-14T08:44:35.185Z,1043.93
2018-11-14T08:45:35.174Z,1043.96
2018-11-14T08:46:35.159Z,1043.97
2018-11-14T08:47:35.153Z,1043.94
2018-11-14T08:48:35.136Z,1043.93
2018-11-14T08:49:35.125Z,1043.99
2018-11-14T08:50:35.115Z,1043.99
2018-11-14T08:51:35.109Z,1044.03
2018-11-14T08:52:35.092Z,1044.1
2018-11-14T08:53:35.089Z,1044.14
2018-11-14T08:54:35.071Z,1044.12
2018-11-14T08:55:35.066Z,1044.1
2018-11-14T08:56:35.054Z,1044.06
2018-11-14T08:57:35.044Z,1044.03
2018-11-14T08:58:35.030Z,1044.01
2018-11-14T08:59:35.021Z,1044.02
2018-11-14T09:00:35.007Z,1043.99
2018-11-14T09:01:34.996Z,1044.02
2018-11-14T09:02:34.990Z,1044.01
2018-11-14T09:03:34.980Z,1044.03
2018-11-14T09:04:34.962Z,1044
2018-11-14T09:05:34.954Z,1044.05
2018-11-14T09:06:34.943Z,1044.05
2018-11-14T09:07:34.988Z,1044.07
2018-11-14T09:08:34.922Z,1044.12
2018-11-14T09:09:34.915Z,1044.11
2018-11-14T09:10:34.900Z,1044.13
2018-11-14T09:11:34.895Z,1044.11
2018-11-14T09:12:34.996Z,1044.06
2018-11-14T09:13:34.878Z,1044.06
2018-11-14T09:14:34.930Z,1044.05
2018-11-14T09:15:34.851Z,1044.05
2018-11-14T09:16:34.841Z,1044.06
2018-11-14T09:17:34.830Z,1044.13
2018-11-14T09:18:34.876Z,1044.09
2018-11-14T09:19:34.810Z,1044.06
2018-11-14T09:20:34.798Z,1043.99
2018-11-14T09:21:34.787Z,1043.93
2018-11-14T09:22:34.778Z,1043.91
2018-11-14T09:23:34.761Z,1043.85
2018-11-14T09:24:34.756Z,1043.81
2018-11-14T09:25:34.745Z,1043.78
2018-11-14T09:26:34.731Z,1043.75
2018-11-14T09:27:34.724Z,1043.68
2018-11-14T09:28:34.711Z,1043.64
2018-11-14T09:29:34.704Z,1043.55
2018-11-14T09:30:34.689Z,1043.53
2018-11-14T09:31:34.684Z,1043.43
2018-11-14T09:32:34.677Z,1043.33
2018-11-14T09:33:34.663Z,1043.27
2018-11-14T09:34:34.710Z,1043.23
2018-11-14T09:35:34.640Z,1043.11
2018-11-14T09:36:34.633Z,1043.1
2018-11-14T09:37:34.624Z,1043.02
2018-11-14T09:38:34.617Z,1042.98
2018-11-14T09:39:34.602Z,1043
2018-11-14T09:40:34.614Z,1043.01
2018-11-14T09:41:34.733Z,1042.99
2018-11-14T09:42:34.575Z,1043.01
2018-11-14T09:43:34.560Z,1042.96
2018-11-14T09:44:34.619Z,1042.89
2018-11-14T09:45:34.542Z,1042.85
2018-11-14T09:46:34.539Z,1042.77
2018-11-14T09:47:34.524Z,1042.79
2018-11-14T09:48:34.529Z,1042.77
2018-11-14T09:49:34.508Z,1042.73
2018-11-14T09:50:34.501Z,1042.73
2018-11-14T09:51:34.490Z,1042.67
2018-11-14T09:52:34.483Z,1042.71
2018-11-14T09:53:34.474Z,1042.64
2018-11-14T09:54:34.467Z,1042.6
2018-11-14T09:55:34.450Z,1042.59
2018-11-14T09:56:34.489Z,1042.57
2018-11-14T09:57:34.434Z,1042.54
2018-11-14T09:58:34.479Z,1042.54
2018-11-14T09:59:34.416Z,1042.48
2018-11-14T10:00:34.437Z,1042.46
2018-11-14T10:01:34.398Z,1042.37
2018-11-14T10:02:34.394Z,1042.41
2018-11-14T10:03:34.388Z,1042.43
2018-11-14T10:04:34.372Z,1042.46
2018-11-14T10:05:34.450Z,1042.48
2018-11-14T10:06:34.359Z,1042.46
2018-11-14T10:07:34.351Z,1042.49
2018-11-14T10:08:34.338Z,1042.44
2018-11-14T10:09:34.328Z,1042.44
2018-11-14T10:10:34.321Z,1042.39
2018-11-14T10:11:34.317Z,1042.32
2018-11-14T10:12:34.385Z,1042.31
2018-11-14T10:13:34.298Z,1042.33
2018-11-14T10:14:34.287Z,1042.3
2018-11-14T10:15:34.305Z,1042.27
2018-11-14T10:16:34.268Z,1042.29
2018-11-14T10:17:34.262Z,1042.27
2018-11-14T10:18:34.362Z,1042.25
2018-11-14T10:19:34.244Z,1042.27
2018-11-14T10:20:34.234Z,1042.31
2018-11-14T10:21:34.257Z,1042.32
2018-11-14T10:22:34.222Z,1042.31
2018-11-14T10:23:34.214Z,1042.24
2018-11-14T10:24:34.203Z,1042.23
2018-11-14T10:25:34.192Z,1042.25
2018-11-14T10:26:34.184Z,1042.25
2018-11-14T10:27:34.180Z,1042.22
2018-11-14T10:28:34.166Z,1042.22
2018-11-14T10:29:34.160Z,1042.24
2018-11-14T10:30:34.158Z,1042.23
2018-11-14T10:31:34.254Z,1042.24
2018-11-14T10:32:34.138Z,1042.27
2018-11-14T10:33:34.126Z,1042.23
2018-11-14T10:34:34.125Z,1042.19
2018-11-14T10:35:34.118Z,1042.23
2018-11-14T10:36:34.103Z,1042.22
2018-11-14T10:37:34.094Z,1042.19
2018-11-14T10:38:34.089Z,1042.09
2018-11-14T10:39:34.081Z,1042.1
2018-11-14T10:40:34.068Z,1042.07
2018-11-14T10:41:34.061Z,1042.04
2018-11-14T10:42:34.057Z,1042.08
2018-11-14T10:43:34.044Z,1042.03
2018-11-14T10:44:34.041Z,1042.02
2018-11-14T10:45:34.029Z,1042.08
2018-11-14T10:46:34.025Z,1042.08
2018-11-14T10:47:34.013Z,1042.1
2018-11-14T10:48:34.009Z,1042.1
2018-11-14T10:49:33.997Z,1042.12
2018-11-14T10:50:33.993Z,1042.12
2018-11-14T10:51:33.983Z,1042.08
2018-11-14T10:52:33.972Z,1042.04
2018-11-14T10:53:33.965Z,1042.13
2018-11-14T10:54:33.961Z,1042.14
2018-11-14T10:55:33.954Z,1042.17
2018-11-14T10:56:33.940Z,1042.17
2018-11-14T10:57:33.933Z,1042.17
2018-11-14T10:58:33.969Z,1042.21
2018-11-14T10:59:33.923Z,1042.21
2018-11-14T11:00:33.910Z,1042.24
2018-11-14T11:01:33.906Z,1042.22
2018-11-14T11:02:33.894Z,1042.23
2018-11-14T11:03:33.891Z,1042.15
2018-11-14T11:04:33.877Z,1042.15
2018-11-14T11:05:33.875Z,1042.12
2018-11-14T11:06:33.865Z,1042.04
2018-11-14T11:07:33.859Z,1042.06
2018-11-14T11:08:33.879Z,1042.05
2018-11-14T11:09:33.841Z,1042.1
2018-11-14T11:10:33.837Z,1042.08
2018-11-14T11:11:33.828Z,1042.07
2018-11-14T11:12:33.817Z,1042.04
2018-11-14T11:13:33.813Z,1041.99
2018-11-14T11:14:33.802Z,1042
2018-11-14T11:15:33.797Z,1041.92
2018-11-14T11:16:33.785Z,1041.86
2018-11-14T11:17:33.789Z,1041.87
2018-11-14T11:18:33.769Z,1041.88
2018-11-14T11:19:33.767Z,1041.91
2018-11-14T11:20:33.755Z,1041.92
2018-11-14T11:21:33.752Z,1041.93
2018-11-14T11:22:33.740Z,1041.86
2018-11-14T11:23:33.781Z,1041.8
2018-11-14T11:24:33.730Z,1041.77
2018-11-14T11:25:33.722Z,1041.74
2018-11-14T11:26:33.709Z,1041.76
2018-11-14T11:27:33.703Z,1041.79
2018-11-14T11:28:33.704Z,1041.75
2018-11-14T11:29:33.690Z,1041.74
2018-11-14T11:30:33.709Z,1041.77
2018-11-14T11:31:33.672Z,1041.74
2018-11-14T11:32:33.677Z,1041.73
2018-11-14T11:33:33.661Z,1041.7
2018-11-14T11:34:33.649Z,1041.71
2018-11-14T11:35:33.646Z,1041.72
2018-11-14T11:36:33.634Z,1041.74
2018-11-14T11:37:33.633Z,1041.72
2018-11-14T11:38:33.621Z,1041.74
2018-11-14T11:39:33.618Z,1041.68
2018-11-14T11:40:33.610Z,1041.62
2018-11-14T11:41:33.602Z,1041.6
2018-11-14T11:42:33.591Z,1041.56
2018-11-14T11:43:33.583Z,1041.55
2018-11-14T11:44:33.630Z,1041.47
2018-11-14T11:45:33.579Z,1041.42
2018-11-14T11:46:33.566Z,1041.4
2018-11-14T11:47:33.553Z,1041.37
2018-11-14T11:48:33.551Z,1041.35
2018-11-14T11:49:33.539Z,1041.32
2018-11-14T11:50:33.537Z,1041.29
2018-11-14T11:51:33.525Z,1041.29
2018-11-14T11:52:33.523Z,1041.24
2018-11-14T11:53:33.512Z,1041.25
2018-11-14T11:54:33.953Z,1041.21
2018-11-14T11:55:33.496Z,1041.22
2018-11-14T11:56:33.490Z,1041.27
2018-11-14T11:57:33.546Z,1041.27
2018-11-14T11:58:33.481Z,1041.31
2018-11-14T11:59:33.485Z,1041.26
2018-11-14T12:00:33.624Z,1041.26
2018-11-14T12:01:33.467Z,1041.24
2018-11-14T12:02:33.454Z,1041.23
2018-11-14T12:03:33.442Z,1041.26
2018-11-14T12:04:33.440Z,1041.27
2018-11-14T12:05:33.430Z,1041.23
2018-11-14T12:06:33.454Z,1041.18
2018-11-14T12:07:33.415Z,1041.11
2018-11-14T12:08:33.412Z,1041.07